Terminal Aerodrome Forecast
Issued by NWS Amarillo, TX

Current Version | Previous Version | Text Only | Print | Product List | Glossary Off
Versions: 1 2 3 4 5 6 7 8 9 10 11 12 13 14 15

000
FTUS44 KAMA 011700
TAFDHT
TAF
KDHT 011726Z 0118/0218 25013G18KT P6SM SCT300
     FM012000 14010KT P6SM SCT090 BKN300
     FM020500 01008KT P6SM BKN100 OVC250
     FM021400 34010KT P6SM SCT100 OVC200=

USA.gov is the U.S. government's official web portal to all federal, state and local government web resources and services.